sensor_id;sensor_type;location;lat;lon;timestamp;temperature;humidity
2935;DHT22;2462;51.456;7.248;2023-04-09T00:00:36;14.00;99.90
2935;DHT22;2462;51.456;7.248;2023-04-09T00:03:01;14.00;99.90
2935;DHT22;2462;51.456;7.248;2023-04-09T00:05:27;14.00;99.90
2935;DHT22;2462;51.456;7.248;2023-04-09T00:07:52;14.00;99.90
2935;DHT22;2462;51.456;7.248;2023-04-09T00:10:18;14.00;99.90
2935;DHT22;2462;51.456;7.248;2023-04-09T00:12:44;14.00;99.90
2935;DHT22;2462;51.456;7.248;2023-04-09T00:15:10;14.00;99.90
2935;DHT22;2462;51.456;7.248;2023-04-09T00:17:35;13.90;99.90
2935;DHT22;2462;51.456;7.248;2023-04-09T00:20:01;13.90;99.90
2935;DHT22;2462;51.456;7.248;2023-04-09T00:22:26;13.90;99.90
2935;DHT22;2462;51.456;7.248;2023-04-09T00:24:52;13.90;99.90
2935;DHT22;2462;51.456;7.248;2023-04-09T00:27:17;13.90;99.90
2935;DHT22;2462;51.456;7.248;2023-04-09T00:29:43;13.90;99.90
2935;DHT22;2462;51.456;7.248;2023-04-09T00:32:09;13.80;99.90
2935;DHT22;2462;51.456;7.248;2023-04-09T00:34:34;13.80;99.90
2935;DHT22;2462;51.456;7.248;2023-04-09T00:37:00;13.80;99.90
2935;DHT22;2462;51.456;7.248;2023-04-09T00:39:26;13.80;99.90
2935;DHT22;2462;51.456;7.248;2023-04-09T00:41:59;13.80;99.90
2935;DHT22;2462;51.456;7.248;2023-04-09T00:44:26;13.80;99.90
2935;DHT22;2462;51.456;7.248;2023-04-09T00:46:53;13.70;99.90
2935;DHT22;2462;51.456;7.248;2023-04-09T00:49:19;13.70;99.90
2935;DHT22;2462;51.456;7.248;2023-04-09T00:51:45;13.70;99.90
2935;DHT22;2462;51.456;7.248;2023-04-09T00:54:11;13.70;99.90
2935;DHT22;2462;51.456;7.248;2023-04-09T00:56:37;13.70;99.90
2935;DHT22;2462;51.456;7.248;2023-04-09T00:59:03;13.70;99.90
2935;DHT22;2462;51.456;7.248;2023-04-09T01:01:29;13.70;99.90
2935;DHT22;2462;51.456;7.248;2023-04-09T01:03:55;13.70;99.90
2935;DHT22;2462;51.456;7.248;2023-04-09T01:12:13;13.60;99.90
2935;DHT22;2462;51.456;7.248;2023-04-09T01:14:52;13.60;99.90
2935;DHT22;2462;51.456;7.248;2023-04-09T01:17:24;13.60;99.90
2935;DHT22;2462;51.456;7.248;2023-04-09T01:20:02;13.50;99.90
2935;DHT22;2462;51.456;7.248;2023-04-09T01:25:12;13.50;99.90
2935;DHT22;2462;51.456;7.248;2023-04-09T01:30:38;13.50;99.90
2935;DHT22;2462;51.456;7.248;2023-04-09T01:33:05;13.40;99.90
2935;DHT22;2462;51.456;7.248;2023-04-09T01:35:30;13.40;99.90
2935;DHT22;2462;51.456;7.248;2023-04-09T01:37:57;13.40;99.90
2935;DHT22;2462;51.456;7.248;2023-04-09T01:40:23;13.50;99.90
2935;DHT22;2462;51.456;7.248;2023-04-09T01:42:49;13.40;99.90
2935;DHT22;2462;51.456;7.248;2023-04-09T01:45:16;13.40;99.90
2935;DHT22;2462;51.456;7.248;2023-04-09T01:47:42;13.40;99.90
2935;DHT22;2462;51.456;7.248;2023-04-09T01:50:08;13.40;99.90
2935;DHT22;2462;51.456;7.248;2023-04-09T01:52:35;13.40;99.90
2935;DHT22;2462;51.456;7.248;2023-04-09T01:55:00;13.30;99.90
2935;DHT22;2462;51.456;7.248;2023-04-09T01:57:26;13.30;99.90
2935;DHT22;2462;51.456;7.248;2023-04-09T01:59:51;13.30;99.90
2935;DHT22;2462;51.456;7.248;2023-04-09T02:02:23;13.30;99.90
2935;DHT22;2462;51.456;7.248;2023-04-09T02:04:52;13.20;99.90
2935;DHT22;2462;51.456;7.248;2023-04-09T02:07:44;13.20;99.90
2935;DHT22;2462;51.456;7.248;2023-04-09T02:10:12;13.20;99.90
2935;DHT22;2462;51.456;7.248;2023-04-09T02:12:41;13.20;99.90
2935;DHT22;2462;51.456;7.248;2023-04-09T02:15:09;13.20;99.90
2935;DHT22;2462;51.456;7.248;2023-04-09T02:17:35;13.20;99.90
2935;DHT22;2462;51.456;7.248;2023-04-09T02:20:01;13.10;99.90
2935;DHT22;2462;51.456;7.248;2023-04-09T02:22:27;13.10;99.90
2935;DHT22;2462;51.456;7.248;2023-04-09T02:24:52;13.20;99.90
2935;DHT22;2462;51.456;7.248;2023-04-09T02:27:18;13.20;99.90
2935;DHT22;2462;51.456;7.248;2023-04-09T02:29:43;13.10;99.90
2935;DHT22;2462;51.456;7.248;2023-04-09T02:32:09;13.10;99.90
2935;DHT22;2462;51.456;7.248;2023-04-09T02:34:34;13.10;99.90
2935;DHT22;2462;51.456;7.248;2023-04-09T02:37:00;13.10;99.90
2935;DHT22;2462;51.456;7.248;2023-04-09T02:39:25;13.10;99.90
2935;DHT22;2462;51.456;7.248;2023-04-09T02:41:51;13.10;99.90
2935;DHT22;2462;51.456;7.248;2023-04-09T02:44:17;13.00;99.90
2935;DHT22;2462;51.456;7.248;2023-04-09T02:46:45;13.10;99.90
2935;DHT22;2462;51.456;7.248;2023-04-09T02:49:11;13.00;99.90
2935;DHT22;2462;51.456;7.248;2023-04-09T02:51:37;13.00;99.90
2935;DHT22;2462;51.456;7.248;2023-04-09T02:54:03;13.00;99.90
2935;DHT22;2462;51.456;7.248;2023-04-09T02:56:28;13.00;99.90
2935;DHT22;2462;51.456;7.248;2023-04-09T02:58:54;13.00;99.90
2935;DHT22;2462;51.456;7.248;2023-04-09T03:01:19;12.90;99.90
2935;DHT22;2462;51.456;7.248;2023-04-09T03:03:46;13.00;99.90
2935;DHT22;2462;51.456;7.248;2023-04-09T03:06:11;12.90;99.90
2935;DHT22;2462;51.456;7.248;2023-04-09T03:08:37;12.90;99.90
2935;DHT22;2462;51.456;7.248;2023-04-09T03:11:03;12.90;99.90
2935;DHT22;2462;51.456;7.248;2023-04-09T03:13:28;12.80;99.90
2935;DHT22;2462;51.456;7.248;2023-04-09T03:15:54;12.80;99.90
2935;DHT22;2462;51.456;7.248;2023-04-09T03:18:19;12.80;99.90
2935;DHT22;2462;51.456;7.248;2023-04-09T03:20:45;12.70;99.90
2935;DHT22;2462;51.456;7.248;2023-04-09T03:23:11;12.70;99.90
2935;DHT22;2462;51.456;7.248;2023-04-09T03:25:36;12.70;99.90
2935;DHT22;2462;51.456;7.248;2023-04-09T03:28:02;12.70;99.90
2935;DHT22;2462;51.456;7.248;2023-04-09T03:30:28;12.70;99.90
2935;DHT22;2462;51.456;7.248;2023-04-09T03:32:54;12.70;99.90
2935;DHT22;2462;51.456;7.248;2023-04-09T03:35:19;12.70;99.90
2935;DHT22;2462;51.456;7.248;2023-04-09T03:37:45;12.70;99.90
2935;DHT22;2462;51.456;7.248;2023-04-09T03:40:11;12.70;99.90
2935;DHT22;2462;51.456;7.248;2023-04-09T03:42:37;12.70;99.90
2935;DHT22;2462;51.456;7.248;2023-04-09T03:45:06;12.70;99.90
2935;DHT22;2462;51.456;7.248;2023-04-09T03:47:32;12.70;99.90
2935;DHT22;2462;51.456;7.248;2023-04-09T03:49:57;12.70;99.90
2935;DHT22;2462;51.456;7.248;2023-04-09T03:52:23;12.60;99.90
2935;DHT22;2462;51.456;7.248;2023-04-09T03:54:48;12.60;99.90
2935;DHT22;2462;51.456;7.248;2023-04-09T03:57:14;12.60;99.90
2935;DHT22;2462;51.456;7.248;2023-04-09T03:59:39;12.60;99.90
2935;DHT22;2462;51.456;7.248;2023-04-09T04:02:05;12.60;99.90
2935;DHT22;2462;51.456;7.248;2023-04-09T04:04:30;12.50;99.90
2935;DHT22;2462;51.456;7.248;2023-04-09T04:06:56;12.50;99.90
2935;DHT22;2462;51.456;7.248;2023-04-09T04:09:21;12.50;99.90
2935;DHT22;2462;51.456;7.248;2023-04-09T04:11:47;12.50;99.90
2935;DHT22;2462;51.456;7.248;2023-04-09T04:14:12;12.50;99.90
2935;DHT22;2462;51.456;7.248;2023-04-09T04:16:39;12.50;99.90
2935;DHT22;2462;51.456;7.248;2023-04-09T04:19:05;12.50;99.90
2935;DHT22;2462;51.456;7.248;2023-04-09T04:21:31;12.50;99.90
2935;DHT22;2462;51.456;7.248;2023-04-09T04:23:56;12.40;99.90
2935;DHT22;2462;51.456;7.248;2023-04-09T04:26:22;12.40;99.90
2935;DHT22;2462;51.456;7.248;2023-04-09T04:28:47;12.40;99.90
2935;DHT22;2462;51.456;7.248;2023-04-09T04:31:13;12.40;99.90
2935;DHT22;2462;51.456;7.248;2023-04-09T04:33:40;12.40;99.90
2935;DHT22;2462;51.456;7.248;2023-04-09T04:36:10;12.40;99.90
2935;DHT22;2462;51.456;7.248;2023-04-09T04:38:37;12.40;99.90
2935;DHT22;2462;51.456;7.248;2023-04-09T04:41:04;12.40;99.90
2935;DHT22;2462;51.456;7.248;2023-04-09T04:43:30;12.40;99.90
2935;DHT22;2462;51.456;7.248;2023-04-09T04:45:56;12.40;99.90
2935;DHT22;2462;51.456;7.248;2023-04-09T04:48:22;12.40;99.90
2935;DHT22;2462;51.456;7.248;2023-04-09T04:50:54;12.40;99.90
2935;DHT22;2462;51.456;7.248;2023-04-09T04:53:20;12.40;99.90
2935;DHT22;2462;51.456;7.248;2023-04-09T04:55:46;12.40;99.90
2935;DHT22;2462;51.456;7.248;2023-04-09T04:58:11;12.40;99.90
2935;DHT22;2462;51.456;7.248;2023-04-09T05:00:37;12.50;99.90
2935;DHT22;2462;51.456;7.248;2023-04-09T05:03:02;12.50;99.90
2935;DHT22;2462;51.456;7.248;2023-04-09T05:05:28;12.40;99.90
2935;DHT22;2462;51.456;7.248;2023-04-09T05:07:53;12.50;99.90
2935;DHT22;2462;51.456;7.248;2023-04-09T05:10:19;12.40;99.90
2935;DHT22;2462;51.456;7.248;2023-04-09T05:12:45;12.40;99.90
2935;DHT22;2462;51.456;7.248;2023-04-09T05:15:10;12.40;99.90
2935;DHT22;2462;51.456;7.248;2023-04-09T05:17:36;12.40;99.90
2935;DHT22;2462;51.456;7.248;2023-04-09T05:20:02;12.40;99.90
2935;DHT22;2462;51.456;7.248;2023-04-09T05:22:27;12.40;99.90
2935;DHT22;2462;51.456;7.248;2023-04-09T05:24:53;12.40;99.90
2935;DHT22;2462;51.456;7.248;2023-04-09T05:27:18;12.40;99.90
2935;DHT22;2462;51.456;7.248;2023-04-09T05:29:46;12.40;99.90
2935;DHT22;2462;51.456;7.248;2023-04-09T05:32:12;12.50;99.90
2935;DHT22;2462;51.456;7.248;2023-04-09T05:34:37;12.50;99.90
2935;DHT22;2462;51.456;7.248;2023-04-09T05:37:03;12.50;99.90
2935;DHT22;2462;51.456;7.248;2023-04-09T05:39:28;12.50;99.90
2935;DHT22;2462;51.456;7.248;2023-04-09T05:41:54;12.60;99.90
2935;DHT22;2462;51.456;7.248;2023-04-09T05:44:20;12.70;99.90
2935;DHT22;2462;51.456;7.248;2023-04-09T05:46:45;12.70;99.90
2935;DHT22;2462;51.456;7.248;2023-04-09T05:49:11;12.70;99.90
2935;DHT22;2462;51.456;7.248;2023-04-09T05:51:36;12.70;99.90
2935;DHT22;2462;51.456;7.248;2023-04-09T05:54:02;12.70;99.90
2935;DHT22;2462;51.456;7.248;2023-04-09T05:56:28;12.70;99.90
2935;DHT22;2462;51.456;7.248;2023-04-09T05:58:54;12.70;99.90
2935;DHT22;2462;51.456;7.248;2023-04-09T06:01:19;12.80;99.90
2935;DHT22;2462;51.456;7.248;2023-04-09T06:03:45;12.80;99.90
2935;DHT22;2462;51.456;7.248;2023-04-09T06:06:12;12.80;99.90
2935;DHT22;2462;51.456;7.248;2023-04-09T06:08:37;12.80;99.90
2935;DHT22;2462;51.456;7.248;2023-04-09T06:11:05;12.90;99.90
2935;DHT22;2462;51.456;7.248;2023-04-09T06:13:32;12.90;99.90
2935;DHT22;2462;51.456;7.248;2023-04-09T06:15:58;12.90;99.90
2935;DHT22;2462;51.456;7.248;2023-04-09T06:18:23;12.90;99.90
2935;DHT22;2462;51.456;7.248;2023-04-09T06:20:49;12.90;99.90
2935;DHT22;2462;51.456;7.248;2023-04-09T06:23:14;12.90;99.90
2935;DHT22;2462;51.456;7.248;2023-04-09T06:25:40;12.90;99.90
2935;DHT22;2462;51.456;7.248;2023-04-09T06:28:06;12.90;99.90
2935;DHT22;2462;51.456;7.248;2023-04-09T06:30:31;12.90;99.90
2935;DHT22;2462;51.456;7.248;2023-04-09T06:32:57;12.90;99.90
2935;DHT22;2462;51.456;7.248;2023-04-09T06:35:23;13.00;99.90
2935;DHT22;2462;51.456;7.248;2023-04-09T06:37:48;13.00;99.90
2935;DHT22;2462;51.456;7.248;2023-04-09T06:40:14;13.00;99.90
2935;DHT22;2462;51.456;7.248;2023-04-09T06:42:39;13.00;99.90
2935;DHT22;2462;51.456;7.248;2023-04-09T06:45:05;13.00;99.90
2935;DHT22;2462;51.456;7.248;2023-04-09T06:47:34;13.00;99.90
2935;DHT22;2462;51.456;7.248;2023-04-09T06:50:00;13.00;99.90
2935;DHT22;2462;51.456;7.248;2023-04-09T06:52:26;13.00;99.90
2935;DHT22;2462;51.456;7.248;2023-04-09T06:54:51;13.00;99.90
2935;DHT22;2462;51.456;7.248;2023-04-09T06:57:17;13.00;99.90
2935;DHT22;2462;51.456;7.248;2023-04-09T06:59:42;13.10;99.90
2935;DHT22;2462;51.456;7.248;2023-04-09T07:02:08;13.10;99.90
2935;DHT22;2462;51.456;7.248;2023-04-09T07:04:34;13.00;99.90
2935;DHT22;2462;51.456;7.248;2023-04-09T07:07:00;13.10;99.90
2935;DHT22;2462;51.456;7.248;2023-04-09T07:09:25;13.10;99.90
2935;DHT22;2462;51.456;7.248;2023-04-09T07:11:51;13.10;99.90
2935;DHT22;2462;51.456;7.248;2023-04-09T07:14:16;13.10;99.90
2935;DHT22;2462;51.456;7.248;2023-04-09T07:16:42;13.10;99.90
2935;DHT22;2462;51.456;7.248;2023-04-09T07:19:10;13.20;99.90
2935;DHT22;2462;51.456;7.248;2023-04-09T07:21:36;13.20;99.90
2935;DHT22;2462;51.456;7.248;2023-04-09T07:24:01;13.20;99.90
2935;DHT22;2462;51.456;7.248;2023-04-09T07:26:27;13.20;99.90
2935;DHT22;2462;51.456;7.248;2023-04-09T07:28:53;13.20;99.90
2935;DHT22;2462;51.456;7.248;2023-04-09T07:31:19;13.30;99.90
2935;DHT22;2462;51.456;7.248;2023-04-09T07:33:44;13.30;99.90
2935;DHT22;2462;51.456;7.248;2023-04-09T07:36:10;13.30;99.90
2935;DHT22;2462;51.456;7.248;2023-04-09T07:38:35;13.30;99.90
2935;DHT22;2462;51.456;7.248;2023-04-09T07:41:01;13.30;99.90
2935;DHT22;2462;51.456;7.248;2023-04-09T07:43:26;13.30;99.90
2935;DHT22;2462;51.456;7.248;2023-04-09T07:48:18;13.40;99.90
2935;DHT22;2462;51.456;7.248;2023-04-09T07:50:43;13.50;99.90
2935;DHT22;2462;51.456;7.248;2023-04-09T07:55:36;13.80;99.90
2935;DHT22;2462;51.456;7.248;2023-04-09T19:02:12;17.80;99.90
2935;DHT22;2462;51.456;7.248;2023-04-09T19:04:38;17.80;99.90
2935;DHT22;2462;51.456;7.248;2023-04-09T19:07:06;17.80;99.90
2935;DHT22;2462;51.456;7.248;2023-04-09T19:09:32;17.70;99.90
2935;DHT22;2462;51.456;7.248;2023-04-09T19:11:57;17.70;99.90
2935;DHT22;2462;51.456;7.248;2023-04-09T19:14:24;17.70;99.90
2935;DHT22;2462;51.456;7.248;2023-04-09T19:16:50;17.60;99.90
2935;DHT22;2462;51.456;7.248;2023-04-09T19:19:16;17.60;99.90
2935;DHT22;2462;51.456;7.248;2023-04-09T19:21:42;17.50;99.90
2935;DHT22;2462;51.456;7.248;2023-04-09T19:24:07;17.50;99.90
2935;DHT22;2462;51.456;7.248;2023-04-09T19:26:33;17.40;99.90
2935;DHT22;2462;51.456;7.248;2023-04-09T19:28:58;17.40;99.90
2935;DHT22;2462;51.456;7.248;2023-04-09T19:31:24;17.40;99.90
2935;DHT22;2462;51.456;7.248;2023-04-09T19:33:49;17.30;99.90
2935;DHT22;2462;51.456;7.248;2023-04-09T19:36:16;17.30;99.90
2935;DHT22;2462;51.456;7.248;2023-04-09T19:38:41;17.30;99.90
2935;DHT22;2462;51.456;7.248;2023-04-09T19:41:07;17.20;99.90
2935;DHT22;2462;51.456;7.248;2023-04-09T19:43:32;17.20;99.90
2935;DHT22;2462;51.456;7.248;2023-04-09T19:45:58;17.20;99.90
2935;DHT22;2462;51.456;7.248;2023-04-09T19:48:23;17.10;99.90
2935;DHT22;2462;51.456;7.248;2023-04-09T19:50:49;17.10;99.90
2935;DHT22;2462;51.456;7.248;2023-04-09T19:53:14;17.10;99.90
2935;DHT22;2462;51.456;7.248;2023-04-09T19:55:40;17.00;99.90
2935;DHT22;2462;51.456;7.248;2023-04-09T19:58:06;17.00;99.90
2935;DHT22;2462;51.456;7.248;2023-04-09T20:00:32;16.90;99.90
2935;DHT22;2462;51.456;7.248;2023-04-09T20:02:58;16.90;99.90
2935;DHT22;2462;51.456;7.248;2023-04-09T20:05:23;16.90;99.90
2935;DHT22;2462;51.456;7.248;2023-04-09T20:07:49;16.80;99.90
2935;DHT22;2462;51.456;7.248;2023-04-09T20:10:16;16.80;99.90
2935;DHT22;2462;51.456;7.248;2023-04-09T20:12:41;16.80;99.90
2935;DHT22;2462;51.456;7.248;2023-04-09T20:15:10;16.80;99.90
2935;DHT22;2462;51.456;7.248;2023-04-09T20:17:36;16.70;99.90
2935;DHT22;2462;51.456;7.248;2023-04-09T20:20:02;16.70;99.90
2935;DHT22;2462;51.456;7.248;2023-04-09T20:22:29;16.70;99.90
2935;DHT22;2462;51.456;7.248;2023-04-09T20:24:55;16.60;99.90
2935;DHT22;2462;51.456;7.248;2023-04-09T20:27:20;16.60;99.90
2935;DHT22;2462;51.456;7.248;2023-04-09T20:29:47;16.60;99.90
2935;DHT22;2462;51.456;7.248;2023-04-09T20:32:13;16.60;99.90
2935;DHT22;2462;51.456;7.248;2023-04-09T20:34:38;16.50;99.90
2935;DHT22;2462;51.456;7.248;2023-04-09T20:37:04;16.50;99.90
2935;DHT22;2462;51.456;7.248;2023-04-09T20:39:30;16.50;99.90
2935;DHT22;2462;51.456;7.248;2023-04-09T20:41:56;16.50;99.90
2935;DHT22;2462;51.456;7.248;2023-04-09T20:44:22;16.40;99.90
2935;DHT22;2462;51.456;7.248;2023-04-09T20:46:48;16.40;99.90
2935;DHT22;2462;51.456;7.248;2023-04-09T20:49:15;16.40;99.90
2935;DHT22;2462;51.456;7.248;2023-04-09T20:51:40;16.40;99.90
2935;DHT22;2462;51.456;7.248;2023-04-09T20:54:06;16.30;99.90
2935;DHT22;2462;51.456;7.248;2023-04-09T20:56:31;16.30;99.90
2935;DHT22;2462;51.456;7.248;2023-04-09T20:58:57;16.30;99.90
2935;DHT22;2462;51.456;7.248;2023-04-09T21:01:23;16.20;99.90
2935;DHT22;2462;51.456;7.248;2023-04-09T21:03:51;16.30;99.90
2935;DHT22;2462;51.456;7.248;2023-04-09T21:06:16;16.20;99.90
2935;DHT22;2462;51.456;7.248;2023-04-09T21:08:42;16.20;99.90
2935;DHT22;2462;51.456;7.248;2023-04-09T21:11:09;16.10;99.90
2935;DHT22;2462;51.456;7.248;2023-04-09T21:13:34;16.10;99.90
2935;DHT22;2462;51.456;7.248;2023-04-09T21:16:00;16.10;99.90
2935;DHT22;2462;51.456;7.248;2023-04-09T21:18:26;16.10;99.90
2935;DHT22;2462;51.456;7.248;2023-04-09T21:20:51;16.00;99.90
2935;DHT22;2462;51.456;7.248;2023-04-09T21:23:17;16.00;99.90
2935;DHT22;2462;51.456;7.248;2023-04-09T21:25:42;16.00;99.90
2935;DHT22;2462;51.456;7.248;2023-04-09T21:28:08;16.00;99.90
2935;DHT22;2462;51.456;7.248;2023-04-09T21:30:34;16.00;99.90
2935;DHT22;2462;51.456;7.248;2023-04-09T21:33:02;15.90;99.90
2935;DHT22;2462;51.456;7.248;2023-04-09T21:35:28;15.90;99.90
2935;DHT22;2462;51.456;7.248;2023-04-09T21:37:54;15.90;99.90
2935;DHT22;2462;51.456;7.248;2023-04-09T21:40:19;15.90;99.90
2935;DHT22;2462;51.456;7.248;2023-04-09T21:42:45;15.90;99.90
2935;DHT22;2462;51.456;7.248;2023-04-09T21:45:10;15.80;99.90
2935;DHT22;2462;51.456;7.248;2023-04-09T21:47:36;15.80;99.90
2935;DHT22;2462;51.456;7.248;2023-04-09T21:50:05;15.70;99.90
2935;DHT22;2462;51.456;7.248;2023-04-09T21:52:31;15.80;99.90
2935;DHT22;2462;51.456;7.248;2023-04-09T21:54:56;15.70;99.90
2935;DHT22;2462;51.456;7.248;2023-04-09T21:57:22;15.70;99.90
2935;DHT22;2462;51.456;7.248;2023-04-09T21:59:48;15.60;99.90
2935;DHT22;2462;51.456;7.248;2023-04-09T22:02:13;15.60;99.90
2935;DHT22;2462;51.456;7.248;2023-04-09T22:04:39;15.60;99.90
2935;DHT22;2462;51.456;7.248;2023-04-09T22:07:08;15.60;99.90
2935;DHT22;2462;51.456;7.248;2023-04-09T22:09:34;15.50;99.90
2935;DHT22;2462;51.456;7.248;2023-04-09T22:11:59;15.50;99.90
2935;DHT22;2462;51.456;7.248;2023-04-09T22:14:27;15.50;99.90
2935;DHT22;2462;51.456;7.248;2023-04-09T22:16:54;15.50;99.90
2935;DHT22;2462;51.456;7.248;2023-04-09T22:19:22;15.40;99.90
2935;DHT22;2462;51.456;7.248;2023-04-09T22:21:48;15.40;99.90
2935;DHT22;2462;51.456;7.248;2023-04-09T22:24:14;15.40;99.90
2935;DHT22;2462;51.456;7.248;2023-04-09T22:26:40;15.40;99.90
2935;DHT22;2462;51.456;7.248;2023-04-09T22:29:11;15.40;99.90
2935;DHT22;2462;51.456;7.248;2023-04-09T22:31:37;15.30;99.90
2935;DHT22;2462;51.456;7.248;2023-04-09T22:34:02;15.30;99.90
2935;DHT22;2462;51.456;7.248;2023-04-09T22:36:28;15.30;99.90
2935;DHT22;2462;51.456;7.248;2023-04-09T22:38:54;15.30;99.90
2935;DHT22;2462;51.456;7.248;2023-04-09T22:41:19;15.30;99.90
2935;DHT22;2462;51.456;7.248;2023-04-09T22:43:45;15.20;99.90
2935;DHT22;2462;51.456;7.248;2023-04-09T22:46:11;15.20;99.90
2935;DHT22;2462;51.456;7.248;2023-04-09T22:48:36;15.10;99.90
2935;DHT22;2462;51.456;7.248;2023-04-09T22:51:02;15.20;99.90
2935;DHT22;2462;51.456;7.248;2023-04-09T22:53:27;15.10;99.90
2935;DHT22;2462;51.456;7.248;2023-04-09T22:55:53;15.10;99.90
2935;DHT22;2462;51.456;7.248;2023-04-09T22:58:22;15.10;99.90
2935;DHT22;2462;51.456;7.248;2023-04-09T23:00:48;15.10;99.90
2935;DHT22;2462;51.456;7.248;2023-04-09T23:03:15;15.00;99.90
2935;DHT22;2462;51.456;7.248;2023-04-09T23:05:41;15.00;99.90
2935;DHT22;2462;51.456;7.248;2023-04-09T23:08:07;15.00;99.90
2935;DHT22;2462;51.456;7.248;2023-04-09T23:10:33;14.90;99.90
2935;DHT22;2462;51.456;7.248;2023-04-09T23:12:59;15.00;99.90
2935;DHT22;2462;51.456;7.248;2023-04-09T23:15:25;14.90;99.90
2935;DHT22;2462;51.456;7.248;2023-04-09T23:17:51;14.90;99.90
2935;DHT22;2462;51.456;7.248;2023-04-09T23:20:17;14.90;99.90
2935;DHT22;2462;51.456;7.248;2023-04-09T23:22:45;14.90;99.90
2935;DHT22;2462;51.456;7.248;2023-04-09T23:25:12;14.90;99.90
2935;DHT22;2462;51.456;7.248;2023-04-09T23:27:38;14.80;99.90
2935;DHT22;2462;51.456;7.248;2023-04-09T23:30:05;14.80;99.90
2935;DHT22;2462;51.456;7.248;2023-04-09T23:32:30;14.80;99.90
2935;DHT22;2462;51.456;7.248;2023-04-09T23:34:56;14.80;99.90
2935;DHT22;2462;51.456;7.248;2023-04-09T23:37:23;14.80;99.90
2935;DHT22;2462;51.456;7.248;2023-04-09T23:39:48;14.70;99.90
2935;DHT22;2462;51.456;7.248;2023-04-09T23:42:14;14.70;99.90
2935;DHT22;2462;51.456;7.248;2023-04-09T23:44:39;14.70;99.90
2935;DHT22;2462;51.456;7.248;2023-04-09T23:47:05;14.70;99.90
2935;DHT22;2462;51.456;7.248;2023-04-09T23:49:31;14.70;99.90
2935;DHT22;2462;51.456;7.248;2023-04-09T23:51:58;14.70;99.90
2935;DHT22;2462;51.456;7.248;2023-04-09T23:54:23;14.60;99.90
2935;DHT22;2462;51.456;7.248;2023-04-09T23:56:49;14.60;99.90
2935;DHT22;2462;51.456;7.248;2023-04-09T23:59:14;14.60;99.90
